createdAt,value
2022-12-25T00:00:35.469Z,99361.34
2022-12-25T00:03:02.100Z,99363.63
2022-12-25T00:05:28.729Z,99368.53
2022-12-25T00:07:55.235Z,99371.13
2022-12-25T00:10:21.873Z,99367.78
2022-12-25T00:12:48.465Z,99366.78
2022-12-25T00:15:14.986Z,99367.53
2022-12-25T00:17:41.633Z,99372.28
2022-12-25T00:20:08.879Z,99372.16
2022-12-25T00:22:35.505Z,99370.22
2022-12-25T00:25:02.023Z,99385.75
2022-12-25T00:27:32.942Z,99377.22
2022-12-25T00:30:00.032Z,99394.22
2022-12-25T00:32:26.629Z,99390.22
2022-12-25T00:34:53.150Z,99384.25
2022-12-25T00:37:19.702Z,99388.50
2022-12-25T00:39:48.446Z,99392.50
2022-12-25T00:42:24.967Z,99389.25
2022-12-25T00:44:51.534Z,99399.94
2022-12-25T00:47:18.289Z,99404.09
2022-12-25T00:49:45.276Z,99401.56
2022-12-25T00:52:11.827Z,99409.00
2022-12-25T00:54:38.332Z,99408.19
2022-12-25T00:57:04.874Z,99411.53
2022-12-25T00:59:32.654Z,99414.25
2022-12-25T01:02:22.397Z,99410.88
2022-12-25T01:04:50.734Z,99416.75
2022-12-25T01:07:18.082Z,99413.41
2022-12-25T01:10:04.321Z,99409.81
2022-12-25T01:12:33.150Z,99416.50
2022-12-25T01:15:00.602Z,99423.22
2022-12-25T01:17:27.165Z,99421.00
2022-12-25T01:19:53.656Z,99425.03
2022-12-25T01:22:20.165Z,99423.16
2022-12-25T01:24:47.021Z,99420.44
2022-12-25T01:27:13.573Z,99422.22
2022-12-25T01:29:40.079Z,99419.63
2022-12-25T01:32:08.077Z,99417.75
2022-12-25T01:34:34.702Z,99416.78
2022-12-25T01:37:01.233Z,99417.03
2022-12-25T01:39:27.995Z,99420.44
2022-12-25T01:41:55.365Z,99409.34
2022-12-25T01:44:37.099Z,99416.13
2022-12-25T01:47:05.006Z,99411.00
2022-12-25T01:49:34.639Z,99417.75
2022-12-25T01:52:05.629Z,99417.75
2022-12-25T01:54:41.048Z,99418.00
2022-12-25T01:57:13.005Z,99421.44
2022-12-25T01:59:39.834Z,99416.44
2022-12-25T02:02:06.422Z,99413.75
2022-12-25T02:04:40.341Z,99422.66
2022-12-25T02:07:16.895Z,99421.94
2022-12-25T02:09:44.411Z,99433.63
2022-12-25T02:12:17.858Z,99439.88
2022-12-25T02:14:44.975Z,99437.34
2022-12-25T02:17:15.120Z,99433.72
2022-12-25T02:20:01.878Z,99446.50
2022-12-25T02:22:32.361Z,99442.19
2022-12-25T02:25:08.835Z,99443.56
2022-12-25T02:28:09.903Z,99443.56
2022-12-25T02:30:43.193Z,99442.63
2022-12-25T02:33:35.564Z,99450.44
2022-12-25T02:36:08.669Z,99449.41
2022-12-25T02:39:00.237Z,99445.16
2022-12-25T02:41:29.634Z,99453.38
2022-12-25T02:44:16.317Z,99457.50
2022-12-25T02:47:02.406Z,99456.69
2022-12-25T02:49:48.894Z,99462.72
2022-12-25T02:52:37.993Z,99465.31
2022-12-25T02:55:29.987Z,99463.56
2022-12-25T02:58:18.869Z,99465.16
2022-12-25T03:01:08.157Z,99476.28
2022-12-25T03:03:58.227Z,99476.13
2022-12-25T03:06:43.017Z,99479.31
2022-12-25T03:09:38.359Z,99480.66
2022-12-25T03:12:16.031Z,99482.22
2022-12-25T03:15:01.202Z,99484.69
2022-12-25T03:17:27.792Z,99480.34
2022-12-25T03:20:12.922Z,99487.16
2022-12-25T03:23:01.426Z,99480.13
2022-12-25T03:25:47.337Z,99485.19
2022-12-25T03:28:13.871Z,99491.59
2022-12-25T03:30:58.976Z,99485.81
2022-12-25T03:34:05.727Z,99494.53
2022-12-25T03:37:29.325Z,99487.25
2022-12-25T03:40:35.603Z,99495.13
2022-12-25T03:43:31.075Z,99494.69
2022-12-25T03:46:23.517Z,99496.44
2022-12-25T03:49:15.180Z,99492.88
2022-12-25T03:52:01.622Z,99504.81
2022-12-25T03:54:49.713Z,99508.00
2022-12-25T03:57:34.538Z,99507.66
2022-12-25T04:00:19.461Z,99508.47
2022-12-25T04:03:04.720Z,99521.91
2022-12-25T04:05:50.046Z,99520.19
2022-12-25T04:08:35.460Z,99515.66
2022-12-25T04:11:20.220Z,99520.03
2022-12-25T04:14:05.123Z,99525.38
2022-12-25T04:16:50.093Z,99517.78
2022-12-25T04:19:35.159Z,99529.03
2022-12-25T04:22:20.464Z,99525.25
2022-12-25T04:25:05.269Z,99522.06
2022-12-25T04:27:50.704Z,99527.25
2022-12-25T04:30:36.200Z,99530.28
2022-12-25T04:33:21.099Z,99533.75
2022-12-25T04:36:06.880Z,99539.63
2022-12-25T04:38:33.469Z,99541.97
2022-12-25T04:41:03.554Z,99540.03
2022-12-25T04:43:30.191Z,99536.94
2022-12-25T04:45:59.291Z,99539.56
2022-12-25T04:48:27.249Z,99541.81
2022-12-25T04:50:53.777Z,99542.09
2022-12-25T04:53:20.357Z,99546.41
2022-12-25T04:55:46.846Z,99549.81
2022-12-25T04:58:13.376Z,99550.22
2022-12-25T05:00:40.100Z,99547.84
2022-12-25T05:03:06.716Z,99556.47
2022-12-25T05:05:33.327Z,99558.19
2022-12-25T05:07:59.846Z,99553.81
2022-12-25T05:10:26.349Z,99560.31
2022-12-25T05:12:52.878Z,99563.00
2022-12-25T05:15:19.415Z,99573.13
2022-12-25T05:17:45.954Z,99569.00
2022-12-25T05:20:12.561Z,99556.22
2022-12-25T05:22:39.101Z,99567.44
2022-12-25T05:25:05.965Z,99562.06
2022-12-25T05:27:32.479Z,99579.75
2022-12-25T05:29:59.086Z,99579.75
2022-12-25T05:32:25.578Z,99589.09
2022-12-25T05:34:52.061Z,99588.06
2022-12-25T05:37:18.603Z,99587.34
2022-12-25T05:39:45.115Z,99591.47
2022-12-25T05:42:11.628Z,99592.09
2022-12-25T05:44:38.167Z,99602.28
2022-12-25T05:47:04.751Z,99609.69
2022-12-25T05:49:31.618Z,99608.66
2022-12-25T05:51:58.343Z,99615.47
2022-12-25T05:54:24.853Z,99616.25
2022-12-25T05:56:51.424Z,99617.84
2022-12-25T05:59:17.947Z,99620.22
2022-12-25T06:01:44.489Z,99616.88
2022-12-25T06:04:12.923Z,99617.84
2022-12-25T06:06:40.083Z,99632.06
2022-12-25T06:09:06.628Z,99633.66
2022-12-25T06:11:33.147Z,99631.81
2022-12-25T06:13:59.714Z,99637.22
2022-12-25T06:16:26.319Z,99647.50
2022-12-25T06:18:52.981Z,99645.66
2022-12-25T06:21:19.633Z,99658.38
2022-12-25T06:23:46.407Z,99663.44
2022-12-25T06:26:16.515Z,99668.88
2022-12-25T06:28:43.121Z,99678.28
2022-12-25T06:31:15.286Z,99682.31
2022-12-25T06:33:42.642Z,99671.84
2022-12-25T06:36:14.001Z,99683.16
2022-12-25T06:38:41.423Z,99682.38
2022-12-25T06:41:14.997Z,99689.88
2022-12-25T06:43:41.508Z,99697.47
2022-12-25T06:46:10.977Z,99694.09
2022-12-25T06:48:39.601Z,99698.28
2022-12-25T06:51:07.210Z,99700.28
2022-12-25T06:53:40.518Z,99704.41
2022-12-25T06:56:15.686Z,99711.34
2022-12-25T06:58:47.475Z,99708.66
2022-12-25T07:01:50.839Z,99709.44
2022-12-25T07:04:41.976Z,99711.19
2022-12-25T07:07:09.866Z,99712.75
2022-12-25T07:09:38.866Z,99716.69
2022-12-25T07:12:08.313Z,99720.78
2022-12-25T07:14:34.854Z,99715.75
2022-12-25T07:17:01.459Z,99715.81
2022-12-25T07:19:28.082Z,99718.75
2022-12-25T07:21:54.684Z,99711.56
2022-12-25T07:24:22.422Z,99718.25
2022-12-25T07:26:50.743Z,99731.66
2022-12-25T07:29:19.445Z,99723.16
2022-12-25T07:31:46.600Z,99730.28
2022-12-25T07:34:13.217Z,99739.78
2022-12-25T07:36:39.752Z,99732.88
2022-12-25T07:39:06.239Z,99732.88
2022-12-25T07:41:32.767Z,99744.66
2022-12-25T07:43:59.312Z,99744.41
2022-12-25T07:46:26.780Z,99740.91
2022-12-25T07:48:53.414Z,99746.03
2022-12-25T07:51:20.063Z,99749.28
2022-12-25T07:53:46.736Z,99737.88
2022-12-25T07:56:19.957Z,99747.69
2022-12-25T07:58:48.336Z,99753.09
2022-12-25T08:01:19.469Z,99749.78
2022-12-25T08:03:51.558Z,99739.66
2022-12-25T08:06:19.038Z,99747.31
2022-12-25T08:08:45.840Z,99748.03
2022-12-25T08:11:12.669Z,99759.19
2022-12-25T08:13:39.699Z,99760.50
2022-12-25T08:16:08.785Z,99770.38
2022-12-25T08:18:37.071Z,99764.63
2022-12-25T08:21:13.066Z,99768.88
2022-12-25T08:23:40.798Z,99773.31
2022-12-25T08:26:09.191Z,99778.28
2022-12-25T08:28:35.959Z,99778.88
2022-12-25T08:31:24.695Z,99766.66
2022-12-25T08:33:54.205Z,99771.50
2022-12-25T08:36:21.593Z,99775.88
2022-12-25T08:38:48.544Z,99776.06
2022-12-25T08:41:16.276Z,99778.41
2022-12-25T08:43:43.267Z,99783.09
2022-12-25T08:46:10.315Z,99795.88
2022-12-25T08:48:37.449Z,99792.75
2022-12-25T08:51:05.144Z,99798.44
2022-12-25T08:53:31.669Z,99792.19
2022-12-25T08:56:04.477Z,99796.38
2022-12-25T08:58:31.108Z,99788.38
2022-12-25T09:00:57.769Z,99796.38
2022-12-25T09:03:24.661Z,99793.19
2022-12-25T09:05:52.468Z,99802.44
2022-12-25T09:08:19.919Z,99809.38
2022-12-25T09:10:46.465Z,99808.97
2022-12-25T09:13:12.979Z,99809.03
2022-12-25T09:15:40.652Z,99807.72
2022-12-25T09:18:07.213Z,99797.38
2022-12-25T09:20:33.707Z,99801.63
2022-12-25T09:23:00.272Z,99796.50
2022-12-25T09:25:26.791Z,99800.94
2022-12-25T09:27:53.293Z,99807.16
2022-12-25T09:30:19.861Z,99802.63
2022-12-25T09:32:46.359Z,99802.63
2022-12-25T09:35:13.952Z,99810.66
2022-12-25T09:37:40.520Z,99816.19
2022-12-25T09:40:08.009Z,99830.41
2022-12-25T09:42:34.786Z,99827.97
2022-12-25T09:45:05.949Z,99837.28
2022-12-25T09:47:36.946Z,99833.47
2022-12-25T09:50:18.855Z,99838.97
2022-12-25T09:52:54.490Z,99838.91
2022-12-25T09:55:24.312Z,99841.94
2022-12-25T09:58:02.200Z,99843.34
2022-12-25T10:00:35.993Z,99840.53
2022-12-25T10:03:16.230Z,99832.16
2022-12-25T10:06:10.615Z,99838.09
2022-12-25T10:08:58.982Z,99835.16
2022-12-25T10:11:58.942Z,99835.31
2022-12-25T10:14:43.564Z,99835.94
2022-12-25T10:17:31.950Z,99835.06
2022-12-25T10:20:04.516Z,99835.78
2022-12-25T10:22:40.687Z,99835.53
2022-12-25T10:25:17.126Z,99855.59
2022-12-25T10:27:43.835Z,99861.25
2022-12-25T10:30:19.742Z,99862.38
2022-12-25T10:32:47.134Z,99862.13
2022-12-25T10:35:16.828Z,99857.88
2022-12-25T10:37:46.275Z,99874.41
2022-12-25T10:40:44.085Z,99879.22
2022-12-25T10:43:46.339Z,99882.97
2022-12-25T10:46:15.185Z,99880.94
2022-12-25T10:48:50.009Z,99874.03
2022-12-25T10:51:34.988Z,99883.53
2022-12-25T10:54:35.712Z,99889.22
2022-12-25T13:31:23.467Z,100021.09
2022-12-25T13:34:52.955Z,100029.63
2022-12-25T13:38:22.172Z,100039.94
2022-12-25T13:41:15.521Z,100048.84
2022-12-25T13:43:49.972Z,100049.25
2022-12-25T13:46:29.326Z,100053.09
2022-12-25T13:49:02.285Z,100061.47
2022-12-25T13:51:37.743Z,100053.72
2022-12-25T13:54:24.651Z,100054.41
2022-12-25T13:57:00.441Z,100054.16
2022-12-25T13:59:36.371Z,100066.09
2022-12-25T14:02:22.364Z,100078.84
2022-12-25T14:04:56.999Z,100070.28
2022-12-25T14:07:34.712Z,100074.38
2022-12-25T14:10:07.974Z,100075.25
2022-12-25T14:12:43.679Z,100081.38
2022-12-25T14:15:26.956Z,100070.06
2022-12-25T14:17:59.375Z,100081.25
2022-12-25T14:20:53.956Z,100073.31
2022-12-25T14:23:30.402Z,100093.44
2022-12-25T14:26:00.404Z,100084.19
2022-12-25T14:28:33.233Z,100095.19
2022-12-25T14:31:07.269Z,100087.03
2022-12-25T14:33:39.728Z,100090.50
2022-12-25T14:36:19.375Z,100087.88
2022-12-25T14:39:06.222Z,100098.59
2022-12-25T14:41:42.408Z,100102.88
2022-12-25T14:44:36.413Z,100102.47
2022-12-25T14:47:20.765Z,100096.47
2022-12-25T14:49:54.937Z,100100.94
2022-12-25T14:52:44.933Z,100105.91
2022-12-25T14:55:29.814Z,100108.25
2022-12-25T14:58:18.985Z,100110.97
2022-12-25T15:01:08.929Z,100110.44
2022-12-25T15:03:44.304Z,100112.31
2022-12-25T15:06:32.653Z,100115.03
2022-12-25T15:09:16.867Z,100117.38
2022-12-25T15:11:56.895Z,100118.25
2022-12-25T15:14:30.619Z,100121.63
2022-12-25T15:17:09.685Z,100126.88
2022-12-25T15:19:50.751Z,100133.53
2022-12-25T15:22:26.255Z,100139.72
2022-12-25T15:25:02.298Z,100147.97
2022-12-25T15:27:41.308Z,100153.56
2022-12-25T15:30:14.988Z,100152.19
2022-12-25T15:32:47.249Z,100149.28
2022-12-25T15:35:19.050Z,100161.06
2022-12-25T15:37:58.813Z,100156.34
2022-12-25T15:40:39.463Z,100147.97
2022-12-25T15:43:39.587Z,100150.44
2022-12-25T15:46:09.773Z,100153.34
2022-12-25T15:48:44.797Z,100153.34
2022-12-25T15:51:23.546Z,100148.09
2022-12-25T15:54:01.190Z,100151.69
2022-12-25T15:56:32.176Z,100147.72
2022-12-25T15:59:07.660Z,100153.34
2022-12-25T16:01:45.616Z,100137.72
2022-12-25T16:04:24.625Z,100147.22
2022-12-25T16:07:03.856Z,100139.53
2022-12-25T16:09:36.201Z,100148.69
2022-12-25T16:12:11.076Z,100160.75
2022-12-25T16:14:51.845Z,100161.81
2022-12-25T16:17:31.713Z,100167.16
2022-12-25T16:20:07.908Z,100176.31
2022-12-25T16:22:40.313Z,100171.31
2022-12-25T16:25:33.793Z,100174.44
2022-12-25T16:28:15.225Z,100176.97
2022-12-25T16:30:53.647Z,100178.44
2022-12-25T16:33:34.710Z,100181.75
2022-12-25T16:36:08.824Z,100187.19
2022-12-25T16:38:41.617Z,100183.88
2022-12-25T16:41:56.226Z,100174.56
2022-12-25T16:48:36.231Z,100161.91
2022-12-25T16:51:49.149Z,100173.22
2022-12-25T16:55:01.854Z,100160.47
2022-12-25T17:01:44.899Z,100173.97
2022-12-25T17:05:23.754Z,100187.03
2022-12-25T17:11:38.811Z,100197.22
2022-12-25T17:15:07.346Z,100197.31
2022-12-25T17:18:39.016Z,100216.16
2022-12-25T17:22:06.432Z,100209.56
2022-12-25T17:25:21.225Z,100205.84
2022-12-25T17:28:35.298Z,100216.28
2022-12-25T17:31:49.828Z,100219.66
2022-12-25T17:35:11.859Z,100228.00
2022-12-25T17:38:20.496Z,100212.28
2022-12-25T17:41:46.091Z,100216.28
2022-12-25T17:45:03.237Z,100219.66
2022-12-25T17:48:13.309Z,100220.13
2022-12-25T17:51:22.135Z,100228.22
2022-12-25T17:54:40.155Z,100229.16
2022-12-25T17:57:53.811Z,100228.00
2022-12-25T18:01:01.383Z,100233.44
2022-12-25T18:07:41.795Z,100246.63
2022-12-25T18:10:52.677Z,100249.16
2022-12-25T18:13:52.774Z,100238.28
2022-12-25T18:17:13.773Z,100252.78
2022-12-25T18:20:39.329Z,100256.75
2022-12-25T18:23:42.819Z,100253.63
2022-12-25T18:26:26.659Z,100250.34
2022-12-25T18:28:59.196Z,100254.50
2022-12-25T18:31:34.678Z,100249.66
2022-12-25T18:34:12.385Z,100248.78
2022-12-25T18:36:51.232Z,100246.34
2022-12-25T18:39:27.932Z,100245.28
2022-12-25T18:42:25.260Z,100261.22
2022-12-25T18:44:58.227Z,100258.03
2022-12-25T18:48:15.667Z,100255.38
2022-12-25T18:51:25.159Z,100258.69
2022-12-25T18:54:30.894Z,100252.56
2022-12-25T18:57:36.787Z,100260.25
2022-12-25T19:04:08.835Z,100256.53
2022-12-25T19:17:27.966Z,100276.16
2022-12-25T19:20:34.159Z,100291.91
2022-12-25T19:23:44.210Z,100286.66
2022-12-25T19:26:47.038Z,100294.69
2022-12-25T19:29:56.202Z,100295.22
2022-12-25T19:33:17.552Z,100298.50
2022-12-25T19:36:34.732Z,100296.44
2022-12-25T19:40:22.674Z,100300.31
2022-12-25T19:43:34.732Z,100305.38
2022-12-25T19:47:09.469Z,100308.03
2022-12-25T19:53:38.690Z,100304.72
2022-12-25T19:56:50.897Z,100310.34
2022-12-25T20:00:02.543Z,100315.25
2022-12-25T20:03:08.536Z,100310.41
2022-12-25T20:06:33.625Z,100326.22
2022-12-25T20:09:41.833Z,100324.97
2022-12-25T20:19:50.228Z,100324.28
2022-12-25T20:22:57.789Z,100330.22
2022-12-25T20:29:46.249Z,100328.28
2022-12-25T20:32:52.329Z,100338.59
2022-12-25T20:36:22.131Z,100337.50
2022-12-25T20:39:25.502Z,100346.06
2022-12-25T20:45:59.761Z,100353.69
2022-12-25T20:49:18.004Z,100351.00
2022-12-25T20:52:25.418Z,100354.22
2022-12-25T20:55:35.727Z,100363.22
2022-12-25T20:58:42.084Z,100361.31
2022-12-25T21:05:13.822Z,100361.22
2022-12-25T21:08:17.857Z,100358.19
2022-12-25T21:21:53.753Z,100364.41
2022-12-25T21:25:02.453Z,100365.19
2022-12-25T21:41:54.012Z,100343.25
2022-12-25T21:45:12.600Z,100337.19
2022-12-25T22:02:07.947Z,100323.72
2022-12-25T22:05:14.530Z,100342.25
2022-12-25T22:08:32.677Z,100339.81
2022-12-25T22:11:46.752Z,100339.16
2022-12-25T22:14:57.471Z,100340.50
2022-12-25T22:18:09.603Z,100347.06
2022-12-25T22:21:27.651Z,100356.50
2022-12-25T22:24:38.528Z,100351.88
2022-12-25T22:31:39.362Z,100347.28
2022-12-25T22:35:01.676Z,100351.22
2022-12-25T22:41:53.280Z,100356.38
2022-12-25T22:45:05.403Z,100356.03
2022-12-25T22:48:24.182Z,100356.28
2022-12-25T22:51:45.717Z,100363.06
2022-12-25T22:54:46.052Z,100373.63
2022-12-25T22:58:00.700Z,100382.16
2022-12-25T23:08:09.921Z,100375.69
2022-12-25T23:11:18.543Z,100378.22
2022-12-25T23:14:19.114Z,100373.16
2022-12-25T23:17:27.734Z,100361.97
2022-12-25T23:20:39.479Z,100355.19
2022-12-25T23:24:07.838Z,100356.16
2022-12-25T23:27:11.815Z,100360.00
2022-12-25T23:30:24.469Z,100365.38
2022-12-25T23:33:36.120Z,100365.50
2022-12-25T23:36:44.118Z,100366.38
2022-12-25T23:43:11.500Z,100366.59
2022-12-25T23:46:19.995Z,100369.44
